Time;durP1;ratioP1;P1;durP2;ratioP2;P2;SDS_P1;SDS_P2;PMS_P1;PMS_P2;Temp;Humidity;BMP_temperature;BMP_pressure;BME280_temperature;BME280_humidity;BME280_pressure;Samples;Min_cycle;Max_cycle;Signal;HPM_P1;HPM_P2
2022/01/04 00:08:36;;;;;;;8.52;2.55;;;9.20;99.90;;;;;;20999036;28;20037;-46
2022/01/04 00:18:39;;;;;;;9.90;3.22;;;9.20;99.90;;;;;;20981810;28;20037;-46
2022/01/04 00:28:40;;;;;;;9.63;3.03;;;9.10;99.90;;;;;;20980694;28;20048;-46
2022/01/04 00:38:41;;;;;;;6.10;2.92;;;9.10;99.90;;;;;;20975487;28;20040;-46
2022/01/04 00:59:04;;;;;;;7.50;2.50;;;9.10;99.90;;;;;;20988660;28;20513;-46
2022/01/04 01:09:05;;;;;;;5.95;2.53;;;9.10;99.90;;;;;;20984906;28;20056;-46
2022/01/04 01:19:06;;;;;;;7.88;2.45;;;9.00;99.90;;;;;;20984417;28;20036;-46
2022/01/04 01:29:07;;;;;;;6.18;2.53;;;9.00;99.90;;;;;;20994380;28;20055;-46
2022/01/04 01:39:10;;;;;;;8.57;3.67;;;8.90;99.90;;;;;;20955428;28;20070;-46
2022/01/04 01:49:11;;;;;;;9.70;3.10;;;8.90;99.90;;;;;;20981079;28;20040;-46
2022/01/04 01:59:13;;;;;;;6.45;2.83;;;8.90;99.90;;;;;;20978262;28;20539;-46
2022/01/04 02:09:14;;;;;;;14.38;5.35;;;9.00;99.90;;;;;;20955005;28;20049;-46
2022/01/04 02:19:16;;;;;;;9.73;3.58;;;8.90;99.90;;;;;;20980900;28;20036;-46
2022/01/04 02:29:18;;;;;;;10.07;3.45;;;8.90;99.90;;;;;;20967187;28;20218;-46
2022/01/04 02:39:19;;;;;;;7.25;3.05;;;8.90;99.90;;;;;;20985987;28;20044;-46
2022/01/04 02:49:22;;;;;;;12.07;4.55;;;8.70;99.90;;;;;;20964623;28;20040;-45
2022/01/04 02:59:23;;;;;;;9.48;3.85;;;8.80;99.90;;;;;;20988887;28;20059;-46
2022/01/04 03:09:24;;;;;;;7.80;3.63;;;8.80;99.90;;;;;;20984316;28;20040;-46
2022/01/04 03:19:26;;;;;;;10.00;3.60;;;8.80;99.90;;;;;;20985438;28;20141;-46
2022/01/04 03:29:27;;;;;;;10.38;3.40;;;8.80;99.90;;;;;;20976717;28;20415;-46
2022/01/04 03:39:28;;;;;;;12.75;4.50;;;8.80;99.90;;;;;;20975719;28;20094;-46
2022/01/04 03:49:29;;;;;;;11.77;3.55;;;8.80;99.90;;;;;;20984142;28;20083;-46
2022/01/04 03:59:30;;;;;;;13.57;3.05;;;8.80;99.90;;;;;;20958269;28;20376;-46
2022/01/04 04:09:34;;;;;;;12.32;3.75;;;8.80;99.90;;;;;;21002042;28;20052;-46
2022/01/04 04:19:35;;;;;;;8.52;3.60;;;8.80;99.90;;;;;;21004111;28;20048;-46
2022/01/04 04:29:36;;;;;;;10.00;2.95;;;8.80;99.90;;;;;;21001295;28;20048;-46
2022/01/04 04:39:38;;;;;;;6.75;2.97;;;8.70;99.90;;;;;;20981012;28;20471;-46
2022/01/04 04:49:39;;;;;;;9.60;3.30;;;8.70;99.90;;;;;;20980985;28;20064;-46
2022/01/04 04:59:40;;;;;;;10.02;4.70;;;8.60;99.90;;;;;;20972290;28;20045;-46
2022/01/04 05:09:41;;;;;;;12.50;3.85;;;8.70;99.90;;;;;;20998806;28;20049;-46
2022/01/04 05:19:43;;;;;;;9.73;3.45;;;8.60;99.90;;;;;;20963658;28;20400;-46
2022/01/04 05:29:44;;;;;;;7.57;3.35;;;8.60;99.90;;;;;;20975624;28;20102;-46
2022/01/04 05:39:46;;;;;;;13.02;4.00;;;8.60;99.90;;;;;;20991674;28;20472;-46
2022/01/04 05:49:47;;;;;;;14.05;4.40;;;8.50;99.90;;;;;;20992493;28;20044;-46
2022/01/04 05:59:49;;;;;;;13.60;4.60;;;8.50;99.90;;;;;;20987361;28;20045;-45
2022/01/04 06:09:52;;;;;;;13.07;4.88;;;8.50;99.90;;;;;;20959269;28;20043;-46
2022/01/04 06:19:58;;;;;;;13.07;4.95;;;8.40;99.90;;;;;;20999858;28;20028;-46
2022/01/04 06:29:59;;;;;;;12.07;4.28;;;8.40;99.90;;;;;;20996012;28;20135;-46
2022/01/04 06:40:01;;;;;;;12.00;4.22;;;8.40;99.90;;;;;;20992374;28;20400;-46
2022/01/04 06:50:04;;;;;;;10.48;5.10;;;8.30;99.90;;;;;;20999104;28;20084;-46
2022/01/04 07:00:06;;;;;;;11.27;3.30;;;8.30;99.90;;;;;;20985933;27;20558;-46
2022/01/04 07:10:09;;;;;;;12.02;4.57;;;8.30;99.90;;;;;;20978707;28;20528;-46
2022/01/04 07:20:11;;;;;;;9.75;3.92;;;8.30;99.90;;;;;;20995622;28;20572;-46
2022/01/04 07:30:12;;;;;;;12.25;4.15;;;8.40;99.90;;;;;;20997080;28;20055;-46
2022/01/04 07:40:14;;;;;;;8.35;3.65;;;8.30;99.90;;;;;;20985102;28;22554;-46
2022/01/04 07:50:16;;;;;;;11.13;4.55;;;8.40;99.90;;;;;;20976435;28;20047;-46
2022/01/04 08:00:17;;;;;;;9.93;3.65;;;8.30;99.90;;;;;;20988290;28;20427;-45
2022/01/04 08:10:18;;;;;;;10.07;3.50;;;8.30;99.90;;;;;;20989252;27;20050;-46
2022/01/04 08:20:20;;;;;;;10.00;3.75;;;8.30;99.90;;;;;;20970632;28;20039;-45
2022/01/04 08:30:21;;;;;;;12.45;4.32;;;8.20;99.90;;;;;;20962145;28;20040;-46
2022/01/04 08:40:22;;;;;;;13.48;4.53;;;8.20;99.90;;;;;;20968312;28;20044;-45
2022/01/04 08:50:23;;;;;;;13.88;5.32;;;8.20;99.90;;;;;;20903214;28;20616;-45
2022/01/04 09:00:24;;;;;;;13.02;3.55;;;8.20;99.90;;;;;;20985034;28;20031;-45
2022/01/04 09:10:25;;;;;;;9.52;3.65;;;8.20;99.90;;;;;;20939593;28;20678;-45
2022/01/04 09:20:27;;;;;;;8.52;3.47;;;8.20;99.90;;;;;;20956245;28;20051;-45
2022/01/04 09:30:28;;;;;;;11.80;4.00;;;8.20;99.90;;;;;;20020730;28;10000736;-45
2022/01/04 09:40:29;;;;;;;13.25;4.18;;;8.30;99.90;;;;;;20861701;28;20048;-45
2022/01/04 09:50:33;;;;;;;7.65;2.80;;;8.30;99.90;;;;;;20866980;28;20055;-45
2022/01/04 10:00:34;;;;;;;7.40;2.38;;;8.40;99.90;;;;;;20868812;28;20222;-45
2022/01/04 10:10:37;;;;;;;6.10;2.65;;;8.50;99.90;;;;;;20891577;28;20052;-45
2022/01/04 10:20:46;;;;;;;10.13;2.42;;;8.60;99.90;;;;;;20868682;28;20037;-45
2022/01/04 10:30:47;;;;;;;7.80;2.65;;;8.60;99.90;;;;;;20872015;28;20059;-45
2022/01/04 10:40:57;;;;;;;6.05;1.98;;;8.60;99.90;;;;;;20874341;28;20037;-45
2022/01/04 10:51:22;;;;;;;3.40;1.30;;;8.70;99.90;;;;;;20876749;28;20060;-45
2022/01/04 11:01:40;;;;;;;4.40;0.90;;;8.80;99.90;;;;;;20875008;28;21518;-45
2022/01/04 11:11:42;;;;;;;2.75;0.70;;;8.80;99.90;;;;;;20876715;28;20044;-45
2022/01/04 11:21:43;;;;;;;2.55;1.10;;;8.70;99.90;;;;;;20904435;28;20045;-45
2022/01/04 11:32:02;;;;;;;3.25;0.60;;;8.50;99.90;;;;;;20901209;28;20563;-45
2022/01/04 11:42:09;;;;;;;1.05;0.52;;;8.40;99.90;;;;;;20918334;28;20037;-45
2022/01/04 11:52:42;;;;;;;2.15;0.73;;;8.30;99.90;;;;;;20907239;28;20048;-45
2022/01/04 12:02:43;;;;;;;2.70;0.80;;;8.20;99.90;;;;;;20908392;28;21414;-45
2022/01/04 12:12:56;;;;;;;1.45;0.30;;;8.20;99.90;;;;;;20909913;28;20056;-45
2022/01/04 12:22:57;;;;;;;3.83;0.85;;;8.00;99.90;;;;;;20903129;28;20048;-45
2022/01/04 12:33:37;;;;;;;2.13;0.45;;;8.10;99.90;;;;;;20875176;28;20489;-45
2022/01/04 12:43:39;;;;;;;0.77;0.25;;;8.00;99.90;;;;;;20880107;28;20598;-45
2022/01/04 12:53:40;;;;;;;1.13;0.30;;;8.00;99.90;;;;;;20890820;28;20057;-45
2022/01/04 13:03:41;;;;;;;1.52;0.25;;;8.00;99.90;;;;;;20904126;28;20041;-45
2022/01/04 13:13:42;;;;;;;1.40;0.40;;;7.70;99.90;;;;;;20889006;28;20048;-45
2022/01/04 13:23:45;;;;;;;0.73;0.28;;;7.30;99.90;;;;;;20923143;28;20036;-45
2022/01/04 13:33:46;;;;;;;4.03;0.20;;;7.10;99.90;;;;;;20919008;28;20358;-45
2022/01/04 13:43:47;;;;;;;0.22;0.10;;;6.90;99.90;;;;;;20918631;28;20036;-45
2022/01/04 13:53:53;;;;;;;0.25;0.10;;;6.90;99.90;;;;;;20895683;28;20812;-45
2022/01/04 14:04:14;;;;;;;0.50;0.03;;;6.90;99.90;;;;;;20871973;28;20459;-45
2022/01/04 14:14:21;;;;;;;0.57;0.20;;;6.90;99.90;;;;;;20893975;28;20048;-45
2022/01/04 14:24:51;;;;;;;1.67;0.20;;;7.00;99.90;;;;;;20873384;28;20039;-45
2022/01/04 14:34:56;;;;;;;0.52;0.10;;;6.90;99.90;;;;;;20883716;28;20528;-45
2022/01/04 14:44:58;;;;;;;0.40;0.20;;;6.90;99.90;;;;;;20909156;28;20036;-45
2022/01/04 14:54:59;;;;;;;1.65;0.30;;;6.80;99.90;;;;;;20899168;28;20052;-45
2022/01/04 15:05:00;;;;;;;2.97;0.13;;;6.70;99.90;;;;;;20901501;28;20404;-45
2022/01/04 15:15:03;;;;;;;0.60;0.17;;;6.70;99.90;;;;;;20907735;28;20567;-45
2022/01/04 15:25:08;;;;;;;3.85;0.40;;;6.70;99.90;;;;;;20880796;28;20041;-45
2022/01/04 15:35:09;;;;;;;0.57;0.20;;;6.70;99.90;;;;;;20901611;28;20044;-45
2022/01/04 15:45:11;;;;;;;3.90;0.30;;;6.60;99.90;;;;;;20907572;28;20043;-45
2022/01/04 15:55:13;;;;;;;2.90;0.35;;;6.60;99.90;;;;;;20907359;28;20291;-45
2022/01/04 16:05:14;;;;;;;3.50;0.63;;;6.50;99.90;;;;;;20854928;28;20044;-45
2022/01/04 16:15:20;;;;;;;0.68;0.20;;;6.60;99.90;;;;;;20883235;28;20052;-45
2022/01/04 16:25:21;;;;;;;2.88;0.40;;;6.50;99.90;;;;;;20868585;28;20107;-45
2022/01/04 16:35:23;;;;;;;3.88;1.17;;;6.50;99.90;;;;;;20899116;28;20044;-45
2022/01/04 16:45:24;;;;;;;1.73;0.40;;;6.50;99.90;;;;;;20860928;28;21181;-45
2022/01/04 16:55:25;;;;;;;3.60;1.00;;;6.50;99.90;;;;;;20871307;28;20044;-45
2022/01/04 17:05:26;;;;;;;2.70;0.50;;;6.40;99.90;;;;;;20896277;28;20045;-45
2022/01/04 17:15:35;;;;;;;2.78;0.25;;;6.40;99.90;;;;;;20862467;28;20037;-45
2022/01/04 17:25:36;;;;;;;4.50;0.35;;;6.40;99.90;;;;;;20887189;28;20405;-45
2022/01/04 17:35:38;;;;;;;2.58;0.40;;;6.30;99.90;;;;;;20878716;28;20349;-45
2022/01/04 17:45:39;;;;;;;0.88;0.32;;;6.20;99.90;;;;;;20899817;28;20040;-45
2022/01/04 17:55:41;;;;;;;5.78;0.80;;;6.20;99.90;;;;;;20964133;28;20048;-46
2022/01/04 18:05:42;;;;;;;8.25;0.63;;;6.10;99.90;;;;;;20941219;28;20040;-45
2022/01/04 18:15:44;;;;;;;1.92;0.30;;;6.10;99.90;;;;;;20935572;28;20205;-45
2022/01/04 18:25:45;;;;;;;3.78;1.02;;;6.00;99.90;;;;;;20950514;28;20496;-45
2022/01/04 18:35:46;;;;;;;0.38;0.20;;;5.90;99.90;;;;;;20960333;28;20049;-45
2022/01/04 18:45:47;;;;;;;0.13;0.10;;;5.90;99.90;;;;;;20957010;28;20574;-45
2022/01/04 18:55:49;;;;;;;0.52;0.13;;;5.80;99.90;;;;;;20961022;28;20051;-45
2022/01/04 19:05:50;;;;;;;0.22;0.10;;;5.30;99.90;;;;;;20942305;28;20127;-45
2022/01/04 19:15:53;;;;;;;1.08;0.35;;;5.00;99.90;;;;;;20961342;28;20048;-45
2022/01/04 19:25:55;;;;;;;0.55;0.20;;;4.90;99.90;;;;;;20933143;28;20056;-45
2022/01/04 19:36:15;;;;;;;0.77;0.28;;;4.90;99.90;;;;;;20908129;28;20523;-45
2022/01/04 19:46:16;;;;;;;1.50;0.50;;;5.00;99.90;;;;;;20909314;28;20036;-45
2022/01/04 19:56:18;;;;;;;1.90;0.40;;;5.00;99.90;;;;;;20881316;28;20045;-45
2022/01/04 20:06:19;;;;;;;1.98;0.40;;;5.00;99.90;;;;;;20897327;28;20056;-45
2022/01/04 20:16:21;;;;;;;3.22;0.57;;;5.00;99.90;;;;;;20914824;28;20059;-45
2022/01/04 20:26:23;;;;;;;1.35;0.70;;;5.10;99.90;;;;;;20901749;28;20359;-45
2022/01/04 20:36:24;;;;;;;0.65;0.30;;;5.00;99.90;;;;;;20908808;28;20051;-45
2022/01/04 20:46:25;;;;;;;2.47;1.25;;;5.10;99.90;;;;;;20903947;28;20518;-45
2022/01/04 20:56:27;;;;;;;5.00;0.28;;;5.00;99.90;;;;;;20901290;28;20044;-45
2022/01/04 21:06:28;;;;;;;0.85;0.22;;;4.90;99.90;;;;;;20872543;28;20515;-45
2022/01/04 21:16:29;;;;;;;2.45;1.20;;;4.70;99.90;;;;;;20873918;28;20508;-45
2022/01/04 21:26:30;;;;;;;2.15;0.40;;;4.60;99.90;;;;;;20878614;28;20045;-45
2022/01/04 21:36:31;;;;;;;1.33;0.22;;;4.30;99.90;;;;;;20870986;28;20401;-45
2022/01/04 21:46:32;;;;;;;1.35;0.40;;;4.20;99.90;;;;;;20879353;28;20255;-45
2022/01/04 21:56:34;;;;;;;1.23;0.55;;;4.20;99.90;;;;;;20904331;28;20044;-45
2022/01/04 22:06:35;;;;;;;2.88;0.40;;;4.10;99.90;;;;;;20883097;28;20532;-45
2022/01/04 22:16:36;;;;;;;1.88;0.43;;;4.10;99.90;;;;;;20885110;28;20560;-45
2022/01/04 22:26:37;;;;;;;1.83;0.60;;;4.00;99.90;;;;;;20874745;28;20241;-45
2022/01/04 22:36:38;;;;;;;2.33;1.13;;;4.00;99.90;;;;;;20874117;28;20067;-45
2022/01/04 22:46:39;;;;;;;2.05;0.40;;;3.90;99.90;;;;;;20885261;28;20048;-45
2022/01/04 22:56:41;;;;;;;1.08;0.28;;;3.90;99.90;;;;;;20895098;28;20076;-45
2022/01/04 23:06:42;;;;;;;1.38;0.40;;;3.70;99.90;;;;;;20890351;28;20511;-45
2022/01/04 23:16:43;;;;;;;1.85;0.40;;;3.70;99.90;;;;;;20892475;28;20087;-45
2022/01/04 23:26:44;;;;;;;1.85;0.22;;;3.70;99.90;;;;;;20885063;28;20519;-45
2022/01/04 23:36:45;;;;;;;0.68;0.30;;;3.80;99.90;;;;;;20894498;28;20048;-45
2022/01/04 23:46:48;;;;;;;0.73;0.30;;;3.70;99.90;;;;;;20893463;28;20052;-45
2022/01/04 23:56:49;;;;;;;2.13;0.63;;;3.50;99.90;;;;;;20884143;28;20045;-45
